• Join FlightAware (Why Join?)
  • Login
  • US Flag 
08:18PM EST


 

Airport Tracker/Info


-or-


 

Live Flight TrackerFlight Track Log ✈ AAY9872 ✈ 05-Apr-2014 ✈ KLAS - KPSP

Flight Track Log - Related Links

Times and Time Zones

All times are in EDT time to prevent confusion due to time zone crossing. See the AAY9872 flight status page for this flight to view local times or setup timezone preferences in your user account.

Time Position Orientation Groundspeed Altitude Reporting Facility
EDT Latitude Longitude Course Direction KTS MPH feet Rate Location/Type
12:22AM 36.0931 -115.1572 180° South 153 176 3,100  Level Los Angeles Center
12:23AM 36.1314 -115.1739 341° North 206 237 5,100 3,000 Climbing Los Angeles Center
12:24AM 36.1303 -115.2308 269° West 272 313 7,600 3,720 Climbing Los Angeles Center
12:25AM 36.0550 -115.2672 201° Southwest 314 361 11,500 3,780 Climbing Los Angeles Center
12:26AM 35.9461 -115.2600 177° South 368 423 15,400 3,360 Climbing Los Angeles Center
12:27AM 35.8375 -115.2511 176° South 391 450 18,400 1,740 Climbing Los Angeles Center
12:28AM 35.6352 -115.4267 180° South  Level Estimated
12:28AM 35.7306 -115.2508 180° South 418 481 19,000  Level Los Angeles Center
12:29AM 35.6239 -115.2853 195° South 414 476 19,000  Level Los Angeles Center
12:30AM 35.5122 -115.3233 196° South 414 476 19,000  Level Los Angeles Center
12:31AM 35.3794 -115.3664 195° South 414 476 19,000  Level Los Angeles Center
12:32AM 35.2664 -115.4011 194° South 414 476 19,000  Level Los Angeles Center
12:33AM 35.1492 -115.4394 195° South 428 493 19,000  Level Los Angeles Center
12:34AM 35.0294 -115.4789 195° South 438 504 19,000  Level Los Angeles Center
12:35AM 34.9097 -115.5178 195° South 441 507 19,000  Level Los Angeles Center
12:36AM 34.7886 -115.5553 194° South 443 510 19,000  Level Los Angeles Center
12:37AM 34.6678 -115.5928 194° South 448 516 19,000  Level Los Angeles Center
12:38AM 34.5428 -115.6314 194° South 453 521 19,000  Level Los Angeles Center
12:39AM 34.4186 -115.6731 195° South 456 525 19,000 -540 Level Los Angeles Center
12:40AM 34.3014 -115.7100 195° South 450 518 18,000 -1,080 Descending Los Angeles Center
12:41AM 34.1928 -115.7444 195° South 413 475 16,900 -1,500 Descending Los Angeles Center
12:42AM 34.0981 -115.7800 197° South 367 422 15,000 -2,100 Descending Los Angeles Center
12:43AM 34.0178 -115.8489 215° Southwest 358 412 12,700 -2,160 Descending Los Angeles Center
12:44AM 33.9386 -115.9125 214° Southwest 348 400 10,700 -1,680 Descending Los Angeles Center
12:45AM 33.8864 -115.9942 232° Southwest 334 384 9,300 -1,680 Descending Los Angeles Center
12:46AM 33.8317 -116.0936 236° Southwest 311 358 7,400 -1,380 Descending Los Angeles Center
12:47AM 33.7861 -116.1761 236° Southwest 302 348 6,600 -720 Descending Los Angeles Center
12:48AM 33.7439 -116.2525 236° Southwest 302 348 6,000 -1,140 Descending Los Angeles Center
12:50AM 33.7500 -116.4000 273° West 194 223 3,300 -1,500 Descending Southern California TRACON
12:51AM 33.7667 -116.4500 292° West 179 206 1,800 -1,200 Descending Southern California TRACON
12:52AM 33.8000 -116.4833 320° Northwest 125 144 1,000 -840 Descending Southern California TRACON
12:54AM 33.8167 -116.5000 309° West  Level FlightAware Approximate
01:01AM 33.8297 -116.5067 309° West  Level Estimated
01:02AM 33.8297 -116.5067 157° South  Level Estimated